createdAt,value
2018-11-04T00:01:21.904Z,20.13
2018-11-04T00:05:30.221Z,20.45
2018-11-04T00:09:38.654Z,22.73
2018-11-04T00:13:47.096Z,26.90
2018-11-04T00:17:55.466Z,21.63
2018-11-04T00:22:03.752Z,18.77
2018-11-04T00:26:12.038Z,17.70
2018-11-04T00:30:20.844Z,20.83
2018-11-04T00:34:29.142Z,15.77
2018-11-04T00:38:37.501Z,18.40
2018-11-04T00:42:45.858Z,22.47
2018-11-04T00:46:54.253Z,17.93
2018-11-04T00:51:02.493Z,18.80
2018-11-04T00:55:11.471Z,20.77
2018-11-04T00:59:20.418Z,17.30
2018-11-04T01:03:28.698Z,22.03
2018-11-04T01:07:38.122Z,20.47
2018-11-04T01:11:46.470Z,16.70
2018-11-04T01:15:54.993Z,22.20
2018-11-04T01:20:03.459Z,21.13
2018-11-04T01:24:11.919Z,19.13
2018-11-04T01:28:20.214Z,18.90
2018-11-04T01:32:28.522Z,18.73
2018-11-04T01:36:36.973Z,17.97
2018-11-04T01:40:45.234Z,18.83
2018-11-04T01:44:53.448Z,16.80
2018-11-04T01:49:01.731Z,24.00
2018-11-04T01:53:10.222Z,19.23
2018-11-04T01:57:18.509Z,18.73
2018-11-04T02:01:27.113Z,16.53
2018-11-04T02:05:36.138Z,22.97
2018-11-04T02:09:44.430Z,20.27
2018-11-04T02:13:52.864Z,18.40
2018-11-04T02:18:01.170Z,17.83
2018-11-04T02:22:09.659Z,18.98
2018-11-04T02:26:18.013Z,19.20
2018-11-04T02:30:26.487Z,19.73
2018-11-04T02:34:35.272Z,19.20
2018-11-04T02:38:43.589Z,19.30
2018-11-04T02:42:51.889Z,16.40
2018-11-04T02:47:00.218Z,17.50
2018-11-04T02:51:08.909Z,18.73
2018-11-04T02:55:17.203Z,22.83
2018-11-04T02:59:25.590Z,17.80
2018-11-04T03:03:34.064Z,18.00
2018-11-04T03:07:42.997Z,21.33
2018-11-04T03:11:51.292Z,19.80
2018-11-04T03:15:59.533Z,22.30
2018-11-04T03:20:08.499Z,18.53
2018-11-04T03:24:16.792Z,21.17
2018-11-04T03:28:25.340Z,15.57
2018-11-04T03:32:33.901Z,19.80
2018-11-04T03:36:42.449Z,17.43
2018-11-04T03:40:50.775Z,18.53
2018-11-04T03:44:59.055Z,20.73
2018-11-04T03:49:08.464Z,22.70
2018-11-04T03:53:16.801Z,21.40
2018-11-04T03:57:25.345Z,21.33
2018-11-04T04:01:34.138Z,20.90
2018-11-04T04:05:42.600Z,19.20
2018-11-04T04:09:50.888Z,14.80
2018-11-04T04:13:59.209Z,25.40
2018-11-04T04:18:07.842Z,22.13
2018-11-04T04:22:16.114Z,20.53
2018-11-04T04:26:24.603Z,20.92
2018-11-04T04:30:32.928Z,20.13
2018-11-04T04:34:41.421Z,20.93
2018-11-04T04:38:49.696Z,19.20
2018-11-04T04:42:58.181Z,20.70
2018-11-04T04:47:06.904Z,23.10
2018-11-04T04:51:15.201Z,21.93
2018-11-04T04:55:23.510Z,20.07
2018-11-04T04:59:31.837Z,18.30
2018-11-04T05:03:40.318Z,20.40
2018-11-04T05:07:48.709Z,16.10
2018-11-04T05:11:57.183Z,18.33
2018-11-04T05:16:06.015Z,17.70
2018-11-04T05:20:14.371Z,21.90
2018-11-04T05:24:22.663Z,22.97
2018-11-04T05:28:31.002Z,23.63
2018-11-04T05:32:39.731Z,27.63
2018-11-04T05:36:48.038Z,23.43
2018-11-04T05:40:56.585Z,22.23
2018-11-04T05:45:06.190Z,21.47
2018-11-04T05:49:14.598Z,24.60
2018-11-04T05:53:23.076Z,22.10
2018-11-04T05:57:31.429Z,19.47
2018-11-04T06:01:40.099Z,23.37
2018-11-04T06:05:48.389Z,24.90
2018-11-04T06:09:57.049Z,27.23
2018-11-04T06:14:05.959Z,26.40
2018-11-04T06:18:14.258Z,22.20
2018-11-04T06:22:22.490Z,22.10
2018-11-04T06:26:30.794Z,24.13
2018-11-04T06:30:39.392Z,24.20
2018-11-04T06:34:47.760Z,25.00
2018-11-04T06:38:56.282Z,25.03
2018-11-04T06:43:04.922Z,20.32
2018-11-04T06:47:13.576Z,23.50
2018-11-04T06:51:21.710Z,21.77
2018-11-04T06:55:29.987Z,28.17
2018-11-04T06:59:38.653Z,28.57
2018-11-04T07:03:58.356Z,25.77
2018-11-04T07:08:06.699Z,22.27
2018-11-04T07:12:15.144Z,25.00
2018-11-04T07:16:23.476Z,26.27
2018-11-04T07:20:31.849Z,24.13
2018-11-04T07:24:41.105Z,25.40
2018-11-04T07:28:49.381Z,29.87
2018-11-04T07:32:57.847Z,23.70
2018-11-04T07:37:06.366Z,25.83
2018-11-04T07:41:14.838Z,26.93
2018-11-04T07:45:23.157Z,28.20
2018-11-04T07:49:31.553Z,28.77
2018-11-04T07:53:40.710Z,31.90
2018-11-04T07:57:49.048Z,32.80
2018-11-04T08:01:57.552Z,29.37
2018-11-04T08:06:06.142Z,26.30
2018-11-04T08:10:15.035Z,37.03
2018-11-04T08:14:23.321Z,32.77
2018-11-04T08:18:31.693Z,34.60
2018-11-04T08:22:40.711Z,36.80
2018-11-04T08:26:48.956Z,32.13
2018-11-04T08:30:57.341Z,34.77
2018-11-04T08:35:05.936Z,36.83
2018-11-04T08:39:14.452Z,30.33
2018-11-04T08:43:22.775Z,34.90
2018-11-04T08:47:31.349Z,36.63
2018-11-04T08:51:39.818Z,41.83
2018-11-04T08:55:48.183Z,37.27
2018-11-04T08:59:56.310Z,40.87
2018-11-04T09:04:04.609Z,39.80
2018-11-04T09:08:13.514Z,39.70
2018-11-04T09:12:21.819Z,37.50
2018-11-04T09:16:30.270Z,43.30
2018-11-04T09:20:39.120Z,45.27
2018-11-04T09:24:47.426Z,45.00
2018-11-04T09:28:55.736Z,40.10
2018-11-04T09:33:03.963Z,40.50
2018-11-04T09:37:12.387Z,38.83
2018-11-04T09:41:20.680Z,50.30
2018-11-04T09:45:29.340Z,40.50
2018-11-04T09:49:37.863Z,42.40
2018-11-04T09:53:46.289Z,46.40
2018-11-04T09:57:54.570Z,41.37
2018-11-04T10:02:03.048Z,40.80
2018-11-04T10:06:11.920Z,47.43
2018-11-04T10:10:20.207Z,45.27
2018-11-04T10:14:28.770Z,37.00
2018-11-04T10:18:37.254Z,40.07
2018-11-04T10:22:45.649Z,39.90
2018-11-04T10:26:53.969Z,49.73
2018-11-04T10:31:02.293Z,40.93
2018-11-04T10:35:11.480Z,44.17
2018-11-04T10:39:19.772Z,39.23
2018-11-04T10:43:28.143Z,43.80
2018-11-04T10:47:36.506Z,40.50
2018-11-04T10:51:44.950Z,38.83
2018-11-04T10:55:53.339Z,43.30
2018-11-04T11:00:01.593Z,45.33
2018-11-04T11:04:10.517Z,43.97
2018-11-04T11:08:18.832Z,43.67
2018-11-04T11:12:27.158Z,41.90
2018-11-04T11:16:35.553Z,43.13
2018-11-04T11:20:43.988Z,47.30
2018-11-04T11:24:52.349Z,43.40
2018-11-04T11:29:00.822Z,45.73
2018-11-04T11:33:09.573Z,49.73
2018-11-04T11:37:17.946Z,51.37
2018-11-04T11:41:26.305Z,43.33
2018-11-04T11:45:34.686Z,49.50
2018-11-04T11:49:43.360Z,46.93
2018-11-04T11:53:51.702Z,48.23
2018-11-04T11:58:00.038Z,48.67
2018-11-04T12:02:08.884Z,49.83
2018-11-04T12:06:17.315Z,43.47
2018-11-04T12:10:25.628Z,40.93
2018-11-04T12:14:33.949Z,43.40
2018-11-04T12:18:42.762Z,44.50
2018-11-04T12:22:51.102Z,48.60
2018-11-04T12:26:59.523Z,49.33
2018-11-04T12:31:08.074Z,44.50
2018-11-04T12:35:16.504Z,43.07
2018-11-04T12:39:24.830Z,49.83
2018-11-04T12:43:33.184Z,46.70
2018-11-04T12:47:41.864Z,51.57
2018-11-04T12:51:50.210Z,45.27
2018-11-04T12:55:58.577Z,43.47
2018-11-04T13:00:11.273Z,46.00
2018-11-04T13:04:19.548Z,48.87
2018-11-04T13:08:27.935Z,39.80
2018-11-04T13:12:36.458Z,35.53
2018-11-04T13:16:44.754Z,43.13
2018-11-04T13:20:53.377Z,37.40
2018-11-04T13:25:01.761Z,44.13
2018-11-04T13:29:10.455Z,38.80
2018-11-04T13:33:19.010Z,34.73
2018-11-04T13:37:27.516Z,39.70
2018-11-04T13:41:35.802Z,41.83
2018-11-04T13:45:44.358Z,40.50
2018-11-04T13:49:53.514Z,39.20
2018-11-04T13:54:01.811Z,39.33
2018-11-04T13:58:10.185Z,31.73
2018-11-04T14:02:18.518Z,32.73
2018-11-04T14:06:27.201Z,32.03
2018-11-04T14:10:35.497Z,32.20
2018-11-04T14:14:43.829Z,37.20
2018-11-04T14:18:52.452Z,30.50
2018-11-04T14:23:00.781Z,34.80
2018-11-04T14:27:09.138Z,31.43
2018-11-04T14:31:17.565Z,34.77
2018-11-04T14:35:25.976Z,34.53
2018-11-04T14:39:34.288Z,32.60
2018-11-04T14:43:42.936Z,36.40
2018-11-04T14:47:51.437Z,35.07
2018-11-04T14:51:59.792Z,33.30
2018-11-04T14:56:08.037Z,25.83
2018-11-04T15:00:16.801Z,32.57
2018-11-04T15:04:25.278Z,37.77
2018-11-04T15:08:33.660Z,33.73
2018-11-04T15:12:42.097Z,34.60
2018-11-04T15:16:50.575Z,32.20
2018-11-04T15:20:58.941Z,35.73
2018-11-04T15:25:07.339Z,35.80
2018-11-04T15:29:15.595Z,32.73
2018-11-04T15:33:24.132Z,33.90
2018-11-04T15:37:32.689Z,36.73
2018-11-04T15:41:41.168Z,43.93
2018-11-04T15:45:49.530Z,37.37
2018-11-04T15:49:57.883Z,32.83
2018-11-04T15:54:06.261Z,36.17
2018-11-04T15:58:14.625Z,36.63
2018-11-04T16:02:23.123Z,30.90
2018-11-04T16:06:31.462Z,37.80
2018-11-04T16:10:39.972Z,36.73
2018-11-04T16:14:48.413Z,30.60
2018-11-04T16:18:56.837Z,29.97
2018-11-04T16:23:05.268Z,33.23
2018-11-04T16:27:13.656Z,35.20
2018-11-04T16:31:22.285Z,37.53
2018-11-04T16:35:30.561Z,33.17
2018-11-04T16:39:38.886Z,30.73
2018-11-04T16:43:47.237Z,32.40
2018-11-04T16:47:55.470Z,33.80
2018-11-04T16:52:03.734Z,34.83
2018-11-04T16:56:12.139Z,28.90
2018-11-04T17:00:21.473Z,33.77
2018-11-04T17:04:29.974Z,31.20
2018-11-04T17:08:38.046Z,37.70
2018-11-04T17:12:46.331Z,30.00
2018-11-04T17:16:54.754Z,29.00
2018-11-04T17:21:03.094Z,31.50
2018-11-04T17:25:11.964Z,29.50
2018-11-04T17:29:20.737Z,32.70
2018-11-04T17:33:29.118Z,29.93
2018-11-04T17:37:37.425Z,30.67
2018-11-04T17:41:45.785Z,31.80
2018-11-04T17:45:54.121Z,34.50
2018-11-04T17:50:02.542Z,28.73
2018-11-04T17:54:10.922Z,27.80
2018-11-04T17:58:19.499Z,28.03
2018-11-04T18:02:27.834Z,34.33
2018-11-04T18:06:36.194Z,33.00
2018-11-04T18:10:44.412Z,31.47
2018-11-04T18:14:53.079Z,29.23
2018-11-04T18:19:01.449Z,30.17
2018-11-04T18:23:09.862Z,32.73
2018-11-04T18:27:18.173Z,37.27
2018-11-04T18:31:26.593Z,31.37
2018-11-04T18:35:34.888Z,32.80
2018-11-04T18:39:43.174Z,31.10
2018-11-04T18:43:51.963Z,32.10
2018-11-04T18:48:00.195Z,37.70
2018-11-04T18:52:08.902Z,29.13
2018-11-04T18:56:17.179Z,30.80
2018-11-04T19:00:25.536Z,29.40
2018-11-04T19:04:33.797Z,34.43
2018-11-04T19:08:42.105Z,37.40
2018-11-04T19:12:50.421Z,35.80
2018-11-04T19:16:59.070Z,26.40
2018-11-04T19:21:07.457Z,29.80
2018-11-04T19:25:16.397Z,34.27
2018-11-04T19:29:25.167Z,35.03
2018-11-04T19:33:33.479Z,27.73
2018-11-04T19:37:41.884Z,27.77
2018-11-04T19:41:50.228Z,31.30
2018-11-04T19:45:58.604Z,25.23
2018-11-04T19:50:08.602Z,28.93
2018-11-04T19:54:17.041Z,31.67
2018-11-04T19:58:25.684Z,25.00
2018-11-04T20:02:33.996Z,24.77
2018-11-04T20:06:42.287Z,26.70
2018-11-04T20:10:50.584Z,28.73
2018-11-04T20:14:59.056Z,26.07
2018-11-04T20:19:12.652Z,29.43
2018-11-04T20:23:20.679Z,26.47
2018-11-04T20:27:29.200Z,27.47
2018-11-04T20:31:42.818Z,29.93
2018-11-04T20:35:51.170Z,26.50
2018-11-04T20:40:04.886Z,28.00
2018-11-04T20:44:13.230Z,25.13
2018-11-04T20:48:27.038Z,25.57
2018-11-04T20:52:35.349Z,25.27
2018-11-04T20:56:48.996Z,22.37
2018-11-04T21:00:57.609Z,22.33
2018-11-04T21:05:06.111Z,26.77
2018-11-04T21:09:14.906Z,28.27
2018-11-04T21:13:23.454Z,24.00
2018-11-04T21:17:31.861Z,26.77
2018-11-04T21:21:40.263Z,25.27
2018-11-04T21:25:48.667Z,25.13
2018-11-04T21:29:57.366Z,26.70
2018-11-04T21:34:06.202Z,24.83
2018-11-04T21:38:14.673Z,33.33
2018-11-04T21:42:24.244Z,28.07
2018-11-04T21:46:32.504Z,26.43
2018-11-04T21:50:40.826Z,26.50
2018-11-04T21:54:49.192Z,28.73
2018-11-04T21:58:57.779Z,26.40
2018-11-04T22:03:06.245Z,25.60
2018-11-04T22:07:14.609Z,34.67
2018-11-04T22:11:23.312Z,26.07
2018-11-04T22:15:31.801Z,26.37
2018-11-04T22:19:40.070Z,29.60
2018-11-04T22:23:48.396Z,28.47
2018-11-04T22:27:57.037Z,32.93
2018-11-04T22:32:06.092Z,21.00
2018-11-04T22:36:14.536Z,25.57
2018-11-04T22:40:23.241Z,26.93
2018-11-04T22:44:31.634Z,24.30
2018-11-04T22:48:39.948Z,25.37
2018-11-04T22:52:48.257Z,20.90
2018-11-04T22:56:56.890Z,22.50
2018-11-04T23:01:05.412Z,22.10
2018-11-04T23:05:19.091Z,23.30
2018-11-04T23:09:28.073Z,18.70
2018-11-04T23:13:36.426Z,22.43
2018-11-04T23:17:44.811Z,22.30
2018-11-04T23:21:53.430Z,20.13
2018-11-04T23:26:02.054Z,22.17
2018-11-04T23:30:12.678Z,21.63
2018-11-04T23:34:20.944Z,24.20
2018-11-04T23:38:29.682Z,19.80
2018-11-04T23:42:38.049Z,17.83
2018-11-04T23:46:46.525Z,20.87
2018-11-04T23:50:55.468Z,21.33
2018-11-04T23:55:03.792Z,24.97
2018-11-04T23:59:12.075Z,21.03
